createdAt,value
2022-10-01T00:00:52.557Z,79.29
2022-10-01T00:01:52.618Z,79.33
2022-10-01T00:02:52.643Z,79.49
2022-10-01T00:03:52.539Z,79.56
2022-10-01T00:04:52.518Z,79.63
2022-10-01T00:05:52.513Z,79.52
2022-10-01T00:06:52.527Z,79.48
2022-10-01T00:07:52.552Z,79.25
2022-10-01T00:08:52.475Z,79.22
2022-10-01T00:09:52.460Z,79.20
2022-10-01T00:10:52.456Z,79.05
2022-10-01T00:11:52.474Z,79.10
2022-10-01T00:12:52.469Z,79.19
2022-10-01T00:13:52.463Z,79.07
2022-10-01T00:14:52.397Z,79.20
2022-10-01T00:15:52.393Z,79.25
2022-10-01T00:16:52.421Z,79.00
2022-10-01T00:17:52.405Z,79.07
2022-10-01T00:18:52.375Z,79.19
2022-10-01T00:19:52.354Z,79.33
2022-10-01T00:20:52.348Z,79.30
2022-10-01T00:21:52.323Z,79.37
2022-10-01T00:22:52.326Z,79.20
2022-10-01T00:23:52.330Z,79.09
2022-10-01T00:24:52.297Z,79.01
2022-10-01T00:25:52.273Z,79.04
2022-10-01T00:26:52.261Z,79.17
2022-10-01T00:27:52.295Z,79.15
2022-10-01T00:28:52.233Z,78.95
2022-10-01T00:29:52.255Z,78.70
2022-10-01T00:30:52.218Z,78.58
2022-10-01T00:31:52.274Z,78.64
2022-10-01T00:32:52.191Z,78.64
2022-10-01T00:33:52.190Z,78.61
2022-10-01T00:34:52.213Z,78.57
2022-10-01T00:35:52.159Z,78.57
2022-10-01T00:36:52.144Z,78.60
2022-10-01T00:37:52.136Z,78.73
2022-10-01T00:38:52.114Z,78.87
2022-10-01T00:39:52.136Z,78.83
2022-10-01T00:40:52.095Z,78.72
2022-10-01T00:41:52.088Z,78.64
2022-10-01T00:42:52.077Z,78.57
2022-10-01T00:43:52.090Z,78.45
2022-10-01T00:44:52.051Z,78.37
2022-10-01T00:45:52.103Z,78.29
2022-10-01T00:46:52.035Z,78.26
2022-10-01T00:47:52.021Z,78.29
2022-10-01T00:48:52.007Z,78.26
2022-10-01T00:49:52.007Z,78.34
2022-10-01T00:50:51.996Z,78.30
2022-10-01T00:51:51.969Z,78.34
2022-10-01T00:52:51.967Z,78.43
2022-10-01T00:53:51.946Z,78.42
2022-10-01T00:54:51.939Z,78.28
2022-10-01T00:55:51.966Z,78.31
2022-10-01T00:56:51.928Z,78.24
2022-10-01T00:57:51.897Z,78.18
2022-10-01T00:58:51.888Z,78.23
2022-10-01T00:59:51.902Z,78.19
2022-10-01T01:00:51.926Z,78.02
2022-10-01T01:01:52.020Z,77.94
2022-10-01T01:02:51.849Z,77.77
2022-10-01T01:03:51.838Z,77.81
2022-10-01T01:04:51.812Z,77.80
2022-10-01T01:05:51.807Z,77.76
2022-10-01T01:06:51.826Z,77.68
2022-10-01T01:07:51.797Z,77.77
2022-10-01T01:08:51.779Z,77.94
2022-10-01T01:09:51.818Z,77.98
2022-10-01T01:10:51.744Z,78.00
2022-10-01T01:11:51.743Z,78.09
2022-10-01T01:12:51.764Z,77.91
2022-10-01T01:13:51.751Z,77.50
2022-10-01T01:14:51.711Z,77.47
2022-10-01T01:15:51.817Z,77.14
2022-10-01T01:16:51.680Z,77.29
2022-10-01T01:17:51.698Z,77.42
2022-10-01T01:18:51.705Z,77.48
2022-10-01T01:19:51.654Z,77.71
2022-10-01T01:20:51.627Z,77.57
2022-10-01T01:21:51.616Z,77.57
2022-10-01T01:22:51.648Z,77.65
2022-10-01T01:23:51.612Z,77.85
2022-10-01T01:24:51.590Z,78.04
2022-10-01T01:25:51.585Z,78.03
2022-10-01T01:26:51.574Z,78.49
2022-10-01T01:27:51.589Z,78.70
2022-10-01T01:28:51.560Z,78.94
2022-10-01T01:29:51.544Z,79.20
2022-10-01T01:30:51.552Z,78.98
2022-10-01T01:31:51.520Z,79.17
2022-10-01T01:32:51.514Z,79.49
2022-10-01T01:33:51.501Z,79.82
2022-10-01T01:34:51.490Z,79.75
2022-10-01T01:35:51.486Z,79.87
2022-10-01T01:36:51.453Z,80.19
2022-10-01T01:37:51.432Z,80.43
2022-10-01T01:38:51.448Z,80.53
2022-10-01T01:39:51.422Z,80.56
2022-10-01T01:40:51.426Z,80.35
2022-10-01T01:41:51.390Z,80.21
2022-10-01T01:42:51.390Z,80.28
2022-10-01T01:43:51.375Z,80.62
2022-10-01T01:44:51.378Z,80.29
2022-10-01T01:45:51.421Z,80.16
2022-10-01T01:46:51.361Z,80.25
2022-10-01T01:47:51.333Z,80.45
2022-10-01T01:48:51.324Z,80.78
2022-10-01T01:49:51.314Z,80.72
2022-10-01T01:50:51.289Z,80.68
2022-10-01T01:51:51.303Z,80.83
2022-10-01T01:52:51.263Z,80.92
2022-10-01T01:53:51.256Z,81.64
2022-10-01T01:54:51.255Z,81.52
2022-10-01T01:55:51.235Z,81.23
2022-10-01T01:56:51.232Z,81.48
2022-10-01T01:57:51.223Z,81.64
2022-10-01T01:58:51.232Z,81.73
2022-10-01T01:59:51.191Z,82.63
2022-10-01T02:00:51.184Z,82.64
2022-10-01T02:01:51.283Z,82.47
2022-10-01T02:02:51.223Z,82.44
2022-10-01T02:03:51.161Z,82.46
2022-10-01T02:04:51.133Z,82.70
2022-10-01T02:05:51.133Z,82.69
2022-10-01T02:06:51.118Z,82.95
2022-10-01T02:07:51.100Z,82.93
2022-10-01T02:08:51.084Z,82.93
2022-10-01T02:09:51.070Z,82.96
2022-10-01T02:10:51.072Z,83.14
2022-10-01T02:11:51.062Z,83.16
2022-10-01T02:12:51.033Z,83.34
2022-10-01T02:13:51.026Z,83.52
2022-10-01T02:14:51.024Z,83.56
2022-10-01T02:15:51.066Z,83.68
2022-10-01T02:16:51.024Z,83.68
2022-10-01T02:17:50.991Z,83.67
2022-10-01T02:18:50.978Z,83.85
2022-10-01T02:19:50.956Z,83.90
2022-10-01T02:20:50.940Z,84.11
2022-10-01T02:21:50.989Z,84.50
2022-10-01T02:22:50.920Z,84.63
2022-10-01T02:23:50.916Z,84.64
2022-10-01T02:24:50.899Z,84.70
2022-10-01T02:25:50.908Z,84.75
2022-10-01T02:26:50.905Z,84.88
2022-10-01T02:27:50.941Z,84.92
2022-10-01T02:28:50.869Z,84.94
2022-10-01T02:29:50.836Z,85.05
2022-10-01T02:30:50.882Z,85.12
2022-10-01T02:31:50.801Z,85.14
2022-10-01T02:32:50.824Z,85.08
2022-10-01T02:33:50.793Z,85.16
2022-10-01T02:34:50.820Z,85.43
2022-10-01T02:35:50.773Z,85.65
2022-10-01T02:36:50.811Z,85.60
2022-10-01T02:37:50.780Z,85.32
2022-10-01T02:38:50.739Z,85.29
2022-10-01T02:39:50.731Z,85.48
2022-10-01T02:40:50.719Z,85.57
2022-10-01T02:41:50.723Z,85.43
2022-10-01T02:42:50.721Z,85.52
2022-10-01T02:43:50.683Z,85.52
2022-10-01T02:44:50.658Z,85.30
2022-10-01T02:45:50.711Z,85.24
2022-10-01T02:46:50.668Z,85.36
2022-10-01T02:47:50.661Z,85.62
2022-10-01T02:48:50.616Z,85.93
2022-10-01T02:49:50.610Z,86.06
2022-10-01T02:50:50.629Z,86.05
2022-10-01T02:51:50.595Z,86.05
2022-10-01T02:52:50.595Z,86.15
2022-10-01T02:53:50.581Z,86.43
2022-10-01T02:54:50.547Z,86.55
2022-10-01T02:55:50.526Z,86.61
2022-10-01T02:56:53.245Z,86.82
2022-10-01T02:57:51.536Z,86.74
2022-10-01T02:58:50.506Z,86.85
2022-10-01T02:59:50.510Z,86.80
2022-10-01T03:00:50.500Z,86.86
2022-10-01T03:01:50.550Z,87.03
2022-10-01T03:02:50.525Z,87.01
2022-10-01T03:03:50.461Z,86.95
2022-10-01T03:04:50.440Z,86.87
2022-10-01T03:05:50.435Z,86.87
2022-10-01T03:06:50.427Z,86.79
2022-10-01T03:07:50.419Z,86.85
2022-10-01T03:08:50.392Z,86.94
2022-10-01T03:09:50.386Z,87.12
2022-10-01T03:10:50.359Z,87.31
2022-10-01T03:11:50.353Z,87.39
2022-10-01T03:12:50.367Z,87.40
2022-10-01T03:13:50.336Z,87.40
2022-10-01T03:14:50.321Z,87.45
2022-10-01T03:15:50.390Z,87.41
2022-10-01T03:16:50.318Z,87.41
2022-10-01T03:17:50.296Z,87.51
2022-10-01T03:18:50.290Z,87.49
2022-10-01T03:19:50.251Z,87.56
2022-10-01T03:20:50.246Z,87.71
2022-10-01T03:21:50.253Z,87.92
2022-10-01T03:22:50.226Z,87.98
2022-10-01T03:23:50.260Z,88.08
2022-10-01T03:24:50.210Z,88.29
2022-10-01T03:25:50.199Z,88.32
2022-10-01T03:26:50.201Z,88.25
2022-10-01T03:27:50.165Z,88.02
2022-10-01T03:28:50.156Z,87.91
2022-10-01T03:29:50.184Z,87.79
2022-10-01T03:30:50.131Z,87.90
2022-10-01T03:31:50.157Z,87.80
2022-10-01T03:32:50.124Z,87.71
2022-10-01T03:33:50.090Z,87.55
2022-10-01T03:34:50.098Z,87.30
2022-10-01T03:35:50.087Z,87.34
2022-10-01T03:36:50.070Z,87.40
2022-10-01T03:37:50.049Z,87.41
2022-10-01T03:38:50.037Z,87.58
2022-10-01T03:39:50.066Z,87.78
2022-10-01T03:40:50.027Z,87.93
2022-10-01T03:41:50.001Z,88.02
2022-10-01T03:42:50.001Z,88.12
2022-10-01T03:43:50.010Z,88.30
2022-10-01T03:44:49.969Z,88.16
2022-10-01T03:45:50.037Z,88.09
2022-10-01T03:46:49.950Z,88.06
2022-10-01T03:47:49.930Z,88.11
2022-10-01T03:48:49.929Z,88.12
2022-10-01T03:49:49.936Z,88.14
2022-10-01T03:50:49.938Z,88.05
2022-10-01T03:51:49.890Z,87.86
2022-10-01T03:52:49.900Z,87.95
2022-10-01T03:53:49.872Z,87.85
2022-10-01T03:54:49.855Z,87.59
2022-10-01T03:55:49.850Z,87.19
2022-10-01T03:56:49.851Z,87.10
2022-10-01T03:57:49.819Z,87.07
2022-10-01T03:58:49.801Z,87.01
2022-10-01T03:59:49.792Z,86.80
2022-10-01T04:00:49.795Z,86.77
2022-10-01T04:01:49.917Z,86.91
2022-10-01T04:02:49.849Z,87.05
2022-10-01T04:03:49.755Z,87.03
2022-10-01T04:04:49.741Z,86.95
2022-10-01T04:05:49.736Z,86.89
2022-10-01T04:06:49.748Z,86.94
2022-10-01T04:07:49.709Z,86.97
2022-10-01T04:08:49.685Z,86.97
2022-10-01T04:09:49.687Z,86.97
2022-10-01T04:10:49.670Z,86.81
2022-10-01T04:11:49.666Z,86.98
2022-10-01T04:12:49.673Z,87.25
2022-10-01T04:13:49.628Z,87.29
2022-10-01T04:14:49.624Z,87.37
2022-10-01T04:15:49.740Z,87.38
2022-10-01T04:16:49.602Z,87.51
2022-10-01T04:17:49.610Z,87.47
2022-10-01T04:18:49.589Z,87.53
2022-10-01T04:19:49.555Z,87.66
2022-10-01T04:20:49.559Z,87.33
2022-10-01T04:21:49.551Z,87.20
2022-10-01T04:22:49.537Z,87.05
2022-10-01T04:23:49.552Z,86.97
2022-10-01T04:24:49.524Z,87.18
2022-10-01T04:25:49.484Z,87.25
2022-10-01T04:26:49.492Z,86.86
2022-10-01T04:27:49.523Z,86.63
2022-10-01T04:28:49.510Z,86.82
2022-10-01T04:29:49.451Z,87.25
2022-10-01T04:30:49.439Z,87.49
2022-10-01T04:31:49.463Z,87.66
2022-10-01T04:32:49.406Z,87.51
2022-10-01T04:33:49.408Z,87.57
2022-10-01T04:34:49.425Z,87.62
2022-10-01T04:35:49.376Z,87.62
2022-10-01T04:36:49.374Z,87.45
2022-10-01T04:37:49.343Z,87.26
2022-10-01T04:38:49.364Z,87.13
2022-10-01T04:39:49.352Z,87.02
2022-10-01T04:40:49.326Z,86.99
2022-10-01T04:41:49.325Z,86.87
2022-10-01T04:42:49.300Z,86.90
2022-10-01T04:43:49.289Z,86.99
2022-10-01T04:44:49.303Z,87.14
2022-10-01T04:45:49.275Z,87.31
2022-10-01T04:46:49.286Z,87.17
2022-10-01T04:47:49.240Z,86.72
2022-10-01T04:48:49.225Z,86.91
2022-10-01T04:49:49.242Z,87.00
2022-10-01T04:50:49.211Z,86.95
2022-10-01T04:51:49.224Z,86.32
2022-10-01T04:52:49.190Z,86.14
2022-10-01T04:53:49.173Z,86.21
2022-10-01T04:54:49.195Z,86.41
2022-10-01T04:55:49.177Z,86.30
2022-10-01T04:56:49.148Z,85.91
2022-10-01T04:57:49.124Z,86.00
2022-10-01T04:58:49.190Z,86.18
2022-10-01T04:59:49.142Z,85.74
2022-10-01T05:00:49.162Z,85.52
2022-10-01T05:01:49.111Z,85.49
2022-10-01T05:02:49.062Z,85.84
2022-10-01T05:03:49.064Z,86.04
2022-10-01T05:04:49.056Z,86.38
2022-10-01T05:05:49.114Z,86.22
2022-10-01T05:06:49.046Z,86.40
2022-10-01T05:07:49.034Z,86.42
2022-10-01T05:08:49.002Z,86.36
2022-10-01T05:09:48.989Z,86.42
2022-10-01T05:10:48.981Z,86.39
2022-10-01T05:11:48.982Z,86.41
2022-10-01T05:12:48.956Z,86.70
2022-10-01T05:13:48.939Z,86.93
2022-10-01T05:14:48.927Z,87.18
2022-10-01T05:15:49.042Z,87.21
2022-10-01T05:16:48.918Z,87.44
2022-10-01T05:17:48.912Z,87.65
2022-10-01T05:18:48.915Z,87.77
2022-10-01T05:19:48.868Z,87.85
2022-10-01T05:20:48.867Z,87.96
2022-10-01T05:21:48.839Z,88.10
2022-10-01T05:22:48.851Z,88.12
2022-10-01T05:23:48.821Z,88.17
2022-10-01T05:24:48.811Z,88.06
2022-10-01T05:25:48.798Z,87.96
2022-10-01T05:26:48.790Z,88.04
2022-10-01T05:27:48.845Z,88.18
2022-10-01T05:28:48.795Z,88.31
2022-10-01T05:29:48.764Z,88.40
2022-10-01T05:30:48.749Z,88.45
2022-10-01T05:31:48.779Z,88.30
2022-10-01T05:32:48.800Z,88.35
2022-10-01T05:33:48.731Z,88.45
2022-10-01T05:34:53.324Z,88.55
2022-10-01T05:35:49.685Z,88.54
2022-10-01T05:36:48.716Z,88.59
2022-10-01T05:37:48.657Z,88.59
2022-10-01T05:38:48.664Z,88.54
2022-10-01T05:39:48.683Z,88.41
2022-10-01T05:40:48.639Z,88.36
2022-10-01T05:41:48.617Z,88.33
2022-10-01T05:42:48.603Z,88.18
2022-10-01T05:43:48.598Z,88.19
2022-10-01T05:44:48.596Z,88.25
2022-10-01T05:45:48.642Z,88.34
2022-10-01T05:46:48.608Z,88.53
2022-10-01T05:47:48.586Z,88.43
2022-10-01T05:48:48.547Z,88.33
2022-10-01T05:49:48.524Z,88.37
2022-10-01T05:50:48.530Z,88.50
2022-10-01T05:51:48.507Z,88.60
2022-10-01T05:52:48.487Z,88.56
2022-10-01T05:53:50.435Z,88.50
2022-10-01T05:54:48.469Z,88.17
2022-10-01T05:55:48.460Z,87.88
2022-10-01T05:56:48.479Z,87.75
2022-10-01T05:57:48.446Z,87.64
2022-10-01T05:58:48.427Z,87.62
2022-10-01T05:59:48.421Z,87.50
2022-10-01T06:00:48.415Z,87.54
2022-10-01T06:01:48.410Z,87.35
2022-10-01T06:02:48.540Z,87.05
2022-10-01T06:03:48.363Z,87.01
2022-10-01T06:04:48.363Z,86.84
2022-10-01T06:05:48.351Z,86.72
2022-10-01T06:06:48.343Z,86.86
2022-10-01T06:07:48.324Z,86.87
2022-10-01T06:08:48.322Z,86.88
2022-10-01T06:09:48.330Z,87.01
2022-10-01T06:10:48.301Z,86.93
2022-10-01T06:11:48.271Z,86.81
2022-10-01T06:12:48.259Z,86.84
2022-10-01T06:13:48.261Z,86.96
2022-10-01T06:14:48.230Z,86.93
2022-10-01T06:15:48.223Z,86.79
2022-10-01T06:16:48.300Z,86.85
2022-10-01T06:17:48.206Z,86.93
2022-10-01T06:18:48.185Z,86.91
2022-10-01T06:19:48.189Z,86.70
2022-10-01T06:20:48.190Z,86.47
2022-10-01T06:21:48.165Z,86.31
2022-10-01T06:22:48.157Z,86.05
2022-10-01T06:23:48.134Z,85.63
2022-10-01T06:24:48.154Z,85.09
2022-10-01T06:25:48.120Z,85.05
2022-10-01T06:26:48.133Z,85.04
2022-10-01T06:27:48.183Z,85.10
2022-10-01T06:28:48.072Z,84.94
2022-10-01T06:29:48.066Z,84.85
2022-10-01T06:30:48.134Z,84.85
2022-10-01T06:31:48.122Z,85.02
2022-10-01T06:32:48.046Z,85.13
2022-10-01T06:33:48.034Z,85.12
2022-10-01T06:34:47.994Z,84.85
2022-10-01T06:35:48.014Z,84.76
2022-10-01T06:36:48.014Z,84.65
2022-10-01T06:37:47.967Z,84.66
2022-10-01T06:38:47.975Z,84.81
2022-10-01T06:39:47.944Z,84.68
2022-10-01T06:40:47.933Z,84.62
2022-10-01T06:41:47.961Z,84.14
2022-10-01T06:42:47.950Z,83.91
2022-10-01T06:43:47.899Z,83.83
2022-10-01T06:44:48.001Z,83.59
2022-10-01T06:45:47.913Z,83.64
2022-10-01T06:46:47.877Z,83.77
2022-10-01T06:47:47.862Z,83.74
2022-10-01T06:48:47.865Z,83.51
2022-10-01T06:49:47.983Z,83.16
2022-10-01T06:50:47.823Z,82.80
2022-10-01T06:51:47.805Z,82.90
2022-10-01T06:52:47.808Z,82.96
2022-10-01T06:53:47.801Z,82.98
2022-10-01T06:54:47.787Z,83.06
2022-10-01T06:55:47.767Z,83.13
2022-10-01T06:56:47.767Z,83.18
2022-10-01T06:57:47.748Z,82.31
2022-10-01T06:58:47.765Z,82.43
2022-10-01T06:59:47.737Z,82.49
2022-10-01T07:00:47.741Z,82.47
2022-10-01T07:01:47.716Z,82.11
2022-10-01T07:02:47.743Z,82.13
2022-10-01T07:03:47.671Z,81.84
2022-10-01T07:04:47.674Z,81.30
2022-10-01T07:05:47.676Z,81.57
2022-10-01T07:06:47.662Z,81.19
2022-10-01T07:07:47.628Z,81.36
2022-10-01T07:08:47.630Z,81.36
2022-10-01T07:09:47.601Z,81.09
2022-10-01T07:10:47.627Z,81.14
2022-10-01T07:11:47.588Z,81.41
2022-10-01T07:12:47.572Z,80.89
2022-10-01T07:13:50.031Z,80.37
2022-10-01T07:14:48.554Z,80.57
2022-10-01T07:15:47.555Z,80.54
2022-10-01T07:16:47.613Z,80.64
2022-10-01T07:17:47.510Z,80.57
2022-10-01T07:18:47.512Z,80.05
2022-10-01T07:19:47.490Z,80.25
2022-10-01T07:20:47.488Z,80.50
2022-10-01T07:21:47.511Z,80.50
2022-10-01T07:22:47.449Z,80.46
2022-10-01T07:23:47.445Z,80.22
2022-10-01T07:24:47.434Z,80.43
2022-10-01T07:25:47.419Z,80.12
2022-10-01T07:26:47.451Z,80.05
2022-10-01T07:27:47.421Z,80.26
2022-10-01T07:28:47.392Z,80.04
2022-10-01T07:29:47.373Z,80.01
2022-10-01T07:30:47.364Z,80.21
2022-10-01T07:31:47.391Z,80.27
2022-10-01T07:32:47.361Z,79.74
2022-10-01T07:33:47.370Z,79.72
2022-10-01T07:34:47.320Z,79.88
2022-10-01T07:35:47.321Z,79.84
2022-10-01T07:36:47.300Z,80.10
2022-10-01T07:37:47.291Z,80.19
2022-10-01T07:38:47.290Z,80.34
2022-10-01T07:39:47.264Z,79.97
2022-10-01T07:40:47.262Z,80.13
2022-10-01T07:41:47.237Z,80.35
2022-10-01T07:42:47.221Z,80.54
2022-10-01T07:43:47.263Z,80.47
2022-10-01T07:44:47.230Z,80.30
2022-10-01T07:45:47.297Z,80.17
2022-10-01T07:46:47.204Z,79.96
2022-10-01T07:47:47.209Z,79.77
2022-10-01T07:48:47.174Z,79.89
2022-10-01T07:49:47.156Z,79.66
2022-10-01T07:50:47.140Z,79.24
2022-10-01T07:51:47.147Z,79.09
2022-10-01T07:52:47.131Z,79.19
2022-10-01T07:53:47.182Z,79.04
2022-10-01T07:54:47.095Z,78.67
2022-10-01T07:55:47.132Z,78.75
2022-10-01T07:56:47.104Z,79.40
2022-10-01T07:57:47.110Z,78.25
2022-10-01T07:58:47.062Z,78.31
2022-10-01T07:59:47.120Z,78.77
2022-10-01T08:00:47.113Z,78.60
2022-10-01T08:01:47.119Z,78.39
2022-10-01T08:02:47.012Z,78.26
2022-10-01T08:03:46.984Z,78.24
2022-10-01T08:04:46.987Z,78.36
2022-10-01T08:05:46.974Z,78.22
2022-10-01T08:06:46.974Z,78.09
2022-10-01T08:07:46.944Z,78.19
2022-10-01T08:08:46.934Z,78.17
2022-10-01T08:09:46.956Z,78.08
2022-10-01T08:10:46.931Z,78.07
2022-10-01T08:11:46.915Z,78.04
2022-10-01T08:12:46.884Z,78.44
2022-10-01T08:13:46.904Z,79.05
2022-10-01T08:14:46.867Z,79.38
2022-10-01T08:15:46.866Z,79.16
2022-10-01T08:16:46.916Z,79.29
2022-10-01T08:17:46.834Z,79.66
2022-10-01T08:18:46.802Z,79.56
2022-10-01T08:19:46.815Z,79.63
2022-10-01T08:20:46.788Z,80.25
2022-10-01T08:21:46.806Z,80.63
2022-10-01T08:22:46.893Z,81.25
2022-10-01T08:23:46.812Z,81.36
2022-10-01T08:24:46.748Z,81.76
2022-10-01T08:25:46.755Z,81.86
2022-10-01T08:26:46.727Z,82.03
2022-10-01T08:27:46.768Z,82.22
2022-10-01T08:28:46.733Z,82.13
2022-10-01T08:29:46.704Z,82.46
2022-10-01T08:30:46.683Z,82.43
2022-10-01T08:31:46.719Z,82.59
2022-10-01T08:32:46.677Z,82.23
2022-10-01T08:33:46.657Z,81.90
2022-10-01T08:34:46.639Z,82.22
2022-10-01T08:35:46.647Z,81.79
2022-10-01T08:36:46.610Z,82.12
2022-10-01T08:37:46.606Z,82.13
2022-10-01T08:38:46.579Z,82.12
2022-10-01T08:39:46.592Z,82.27
2022-10-01T08:40:46.601Z,81.82
2022-10-01T08:41:46.550Z,81.41
2022-10-01T08:42:46.547Z,81.13
2022-10-01T08:43:46.531Z,81.38
2022-10-01T08:44:46.528Z,81.11
2022-10-01T08:45:46.644Z,81.00
2022-10-01T08:46:46.519Z,81.11
2022-10-01T08:47:46.478Z,80.75
2022-10-01T08:48:46.464Z,80.50
2022-10-01T08:49:46.477Z,80.60
2022-10-01T08:50:46.443Z,80.85
2022-10-01T08:51:46.449Z,80.65
2022-10-01T08:52:46.420Z,80.52
2022-10-01T08:53:46.419Z,80.61
2022-10-01T08:54:46.497Z,80.10
2022-10-01T08:55:46.392Z,79.86
2022-10-01T08:56:46.427Z,80.10
2022-10-01T08:57:46.393Z,80.29
2022-10-01T08:58:46.350Z,80.42
2022-10-01T08:59:46.362Z,80.29
2022-10-01T09:00:46.416Z,79.87
2022-10-01T09:01:46.372Z,80.07
2022-10-01T09:02:46.332Z,80.21
2022-10-01T09:03:46.303Z,79.76
2022-10-01T09:04:46.329Z,79.74
2022-10-01T09:05:46.280Z,79.56
2022-10-01T09:06:46.272Z,79.62
2022-10-01T09:07:46.282Z,78.95
2022-10-01T09:08:46.256Z,78.84
2022-10-01T09:09:46.230Z,79.25
2022-10-01T09:10:46.228Z,78.97
2022-10-01T09:11:46.203Z,79.22
2022-10-01T09:12:46.260Z,79.19
2022-10-01T09:13:50.089Z,79.11
2022-10-01T09:14:46.201Z,78.60
2022-10-01T09:15:46.180Z,78.14
2022-10-01T09:16:46.172Z,78.04
2022-10-01T09:17:46.135Z,77.46
2022-10-01T09:18:46.133Z,77.35
2022-10-01T09:19:47.857Z,77.86
2022-10-01T09:20:46.109Z,77.61
2022-10-01T09:21:46.083Z,77.81
2022-10-01T09:22:46.076Z,77.70
2022-10-01T09:23:46.095Z,77.77
2022-10-01T09:24:46.063Z,78.03
2022-10-01T09:25:46.059Z,78.45
2022-10-01T09:26:46.026Z,78.64
2022-10-01T09:27:46.063Z,78.58
2022-10-01T09:28:46.047Z,78.29
2022-10-01T09:29:46.031Z,78.97
2022-10-01T09:30:46.004Z,78.91
2022-10-01T09:31:46.016Z,78.57
2022-10-01T09:32:45.995Z,78.80
2022-10-01T09:33:45.990Z,78.76
2022-10-01T09:34:45.935Z,79.65
2022-10-01T09:35:45.942Z,80.06
2022-10-01T09:36:45.954Z,80.73
2022-10-01T09:37:45.895Z,80.48
2022-10-01T09:38:45.898Z,80.39
2022-10-01T09:39:45.896Z,80.69
2022-10-01T09:40:45.872Z,80.97
2022-10-01T09:41:45.871Z,81.16
2022-10-01T09:42:45.835Z,81.32
2022-10-01T09:43:45.837Z,81.13
2022-10-01T09:44:45.850Z,81.32
2022-10-01T09:45:45.856Z,81.40
2022-10-01T09:46:45.805Z,81.58
2022-10-01T09:47:45.795Z,81.96
2022-10-01T09:48:45.785Z,82.37
2022-10-01T09:49:45.788Z,82.22
2022-10-01T09:50:45.750Z,82.36
2022-10-01T09:51:45.937Z,82.62
2022-10-01T09:52:45.734Z,82.74
2022-10-01T09:53:45.718Z,82.97
2022-10-01T09:54:45.724Z,82.80
2022-10-01T09:55:45.717Z,82.78
2022-10-01T09:56:45.687Z,83.09
2022-10-01T09:57:45.682Z,83.18
2022-10-01T09:58:45.675Z,83.15
2022-10-01T09:59:45.651Z,83.34
2022-10-01T10:00:45.654Z,83.47
2022-10-01T10:01:45.708Z,83.29
2022-10-01T10:02:49.299Z,83.49
2022-10-01T10:03:45.610Z,83.42
2022-10-01T10:04:45.614Z,83.42
2022-10-01T10:05:45.617Z,83.54
2022-10-01T10:06:45.595Z,83.83
2022-10-01T10:07:45.561Z,84.03
2022-10-01T10:08:45.569Z,83.68
2022-10-01T10:09:45.552Z,83.62
2022-10-01T10:10:45.571Z,83.19
2022-10-01T10:11:45.581Z,83.24
2022-10-01T10:12:45.490Z,83.39
2022-10-01T10:13:45.489Z,83.79
2022-10-01T10:14:45.510Z,84.37
2022-10-01T10:15:45.541Z,84.36
2022-10-01T10:16:45.448Z,84.06
2022-10-01T10:17:45.481Z,83.56
2022-10-01T10:18:45.422Z,83.11
2022-10-01T10:19:45.464Z,82.90
2022-10-01T10:20:45.418Z,83.20
2022-10-01T10:21:45.418Z,83.67
2022-10-01T10:22:45.398Z,83.50
2022-10-01T10:23:45.372Z,83.33
2022-10-01T10:24:45.363Z,83.72
2022-10-01T10:25:45.350Z,83.36
2022-10-01T10:26:45.353Z,83.61
2022-10-01T10:27:45.402Z,83.47
2022-10-01T10:28:45.373Z,83.13
2022-10-01T10:29:45.310Z,83.01
2022-10-01T10:30:45.292Z,82.63
2022-10-01T10:31:45.380Z,82.35
2022-10-01T10:32:45.277Z,82.11
2022-10-01T10:33:45.265Z,82.73
2022-10-01T10:34:45.254Z,83.20
2022-10-01T10:35:45.222Z,83.79
2022-10-01T10:36:45.251Z,82.92
2022-10-01T10:37:45.233Z,81.49
2022-10-01T10:38:45.198Z,81.54
2022-10-01T10:39:45.217Z,81.96
2022-10-01T10:40:45.172Z,82.49
2022-10-01T10:41:45.198Z,82.41
2022-10-01T10:42:45.177Z,82.27
2022-10-01T10:43:45.176Z,81.49
2022-10-01T10:44:45.151Z,81.15
2022-10-01T10:45:45.135Z,80.86
2022-10-01T10:46:46.312Z,80.30
2022-10-01T10:47:45.117Z,80.22
2022-10-01T10:48:45.101Z,80.28
2022-10-01T10:49:45.104Z,80.39
2022-10-01T10:50:45.103Z,80.53
2022-10-01T10:51:45.081Z,80.10
2022-10-01T10:52:45.820Z,80.79
2022-10-01T10:53:45.086Z,80.81
2022-10-01T10:54:45.036Z,80.84
2022-10-01T10:55:45.032Z,79.37
2022-10-01T10:56:44.999Z,79.63
2022-10-01T10:57:45.005Z,77.26
2022-10-01T10:58:44.976Z,75.58
2022-10-01T10:59:44.976Z,76.34
2022-10-01T11:00:44.966Z,74.51
2022-10-01T11:01:45.092Z,74.86
2022-10-01T11:02:45.016Z,73.60
2022-10-01T11:03:44.929Z,74.36
2022-10-01T11:04:44.907Z,74.17
2022-10-01T11:05:44.915Z,74.77
2022-10-01T11:06:44.901Z,74.49
2022-10-01T11:07:44.936Z,73.33
2022-10-01T11:08:44.866Z,72.96
2022-10-01T11:09:44.854Z,73.25
2022-10-01T11:10:44.852Z,73.19
2022-10-01T11:11:44.838Z,71.98
2022-10-01T11:12:44.858Z,71.68
2022-10-01T11:13:44.811Z,72.68
2022-10-01T11:14:44.803Z,71.60
2022-10-01T11:15:44.839Z,71.64
2022-10-01T11:16:44.788Z,71.31
2022-10-01T11:17:44.761Z,71.96
2022-10-01T11:18:44.786Z,72.00
2022-10-01T11:19:44.738Z,71.53
2022-10-01T11:20:44.722Z,70.99
2022-10-01T11:21:44.715Z,70.99
2022-10-01T11:22:44.701Z,70.83
2022-10-01T11:23:44.715Z,70.37
2022-10-01T11:24:44.671Z,71.10
2022-10-01T11:25:44.666Z,70.11
2022-10-01T11:26:44.709Z,70.30
2022-10-01T11:27:44.666Z,70.05
2022-10-01T11:28:44.625Z,70.70
2022-10-01T11:29:44.649Z,71.01
2022-10-01T11:30:44.605Z,69.73
2022-10-01T11:31:44.656Z,70.15
2022-10-01T11:32:44.582Z,70.38
2022-10-01T11:33:44.594Z,69.94
2022-10-01T11:34:44.596Z,70.76
2022-10-01T11:35:44.547Z,70.75
2022-10-01T11:36:44.532Z,70.98
2022-10-01T11:37:44.523Z,70.68
2022-10-01T11:38:44.545Z,70.31
2022-10-01T11:39:44.523Z,69.97
2022-10-01T11:40:44.532Z,69.98
2022-10-01T11:41:44.509Z,69.35
2022-10-01T11:42:44.487Z,70.23
2022-10-01T11:43:44.460Z,70.68
2022-10-01T11:44:44.484Z,70.03
2022-10-01T11:45:44.451Z,69.83
2022-10-01T11:46:44.459Z,70.48
2022-10-01T11:47:44.416Z,71.13
2022-10-01T11:48:44.405Z,71.31
2022-10-01T11:49:44.403Z,71.88
2022-10-01T11:50:44.388Z,72.13
2022-10-01T11:51:44.371Z,69.83
2022-10-01T11:52:44.380Z,69.22
2022-10-01T11:53:44.351Z,69.56
2022-10-01T11:54:44.349Z,70.35
2022-10-01T11:55:44.347Z,70.87
2022-10-01T11:56:44.339Z,70.81
2022-10-01T11:57:44.304Z,70.63
2022-10-01T11:58:44.296Z,70.84
2022-10-01T11:59:44.324Z,71.24
2022-10-01T12:00:44.343Z,71.24
2022-10-01T12:01:44.290Z,69.80
2022-10-01T12:02:44.238Z,70.60
2022-10-01T12:03:44.241Z,70.59
2022-10-01T12:04:44.220Z,69.84
2022-10-01T12:05:44.279Z,70.14
2022-10-01T12:06:44.210Z,68.87
2022-10-01T12:07:44.188Z,70.22
2022-10-01T12:08:44.198Z,71.05
2022-10-01T12:09:44.169Z,71.48
2022-10-01T12:10:44.150Z,70.11
2022-10-01T12:11:44.187Z,70.67
2022-10-01T12:12:44.143Z,70.96
2022-10-01T12:13:44.142Z,72.13
2022-10-01T12:14:44.112Z,71.70
2022-10-01T12:15:44.170Z,70.10
2022-10-01T12:16:44.146Z,69.40
2022-10-01T12:17:44.081Z,69.48
2022-10-01T12:18:44.079Z,68.63
2022-10-01T12:19:44.078Z,68.35
2022-10-01T12:20:44.051Z,68.19
2022-10-01T12:21:44.049Z,68.71
2022-10-01T12:22:44.045Z,68.72
2022-10-01T12:23:44.013Z,68.33
2022-10-01T12:24:44.007Z,69.15
2022-10-01T12:25:43.983Z,66.62
2022-10-01T12:26:43.985Z,67.62
2022-10-01T12:27:44.026Z,67.39
2022-10-01T12:28:47.857Z,67.33
2022-10-01T12:29:44.954Z,67.90
2022-10-01T12:30:43.943Z,68.16
2022-10-01T12:31:43.988Z,67.99
2022-10-01T12:32:43.933Z,67.78
2022-10-01T12:33:43.896Z,67.90
2022-10-01T12:34:43.875Z,67.32
2022-10-01T12:35:43.869Z,66.55
2022-10-01T12:36:43.863Z,67.34
2022-10-01T12:37:43.839Z,67.65
2022-10-01T12:38:43.844Z,67.91
2022-10-01T12:39:43.822Z,66.52
2022-10-01T12:40:43.814Z,65.83
2022-10-01T12:41:43.834Z,65.52
2022-10-01T12:42:43.814Z,65.01
2022-10-01T12:43:43.784Z,65.11
2022-10-01T12:44:43.784Z,65.53
2022-10-01T12:45:43.754Z,65.64
2022-10-01T12:46:43.802Z,65.31
2022-10-01T12:47:43.760Z,65.10
2022-10-01T12:48:43.734Z,64.87
2022-10-01T12:49:43.725Z,65.03
2022-10-01T12:50:43.708Z,65.49
2022-10-01T12:51:43.688Z,64.82
2022-10-01T12:52:43.688Z,65.14